Time;durP1;ratioP1;P1;durP2;ratioP2;P2;SDS_P1;SDS_P2;PMS_P1;PMS_P2;Temp;Humidity;BMP_temperature;BMP_pressure;BME280_temperature;BME280_humidity;BME280_pressure;Samples;Min_cycle;Max_cycle;Signal;HPM_P1;HPM_P2
2022/08/27 00:01:15;;;;;;;3.03;1.43;;;22.60;75.70;;;;;;5075453;28;20437;-70
2022/08/27 00:03:42;;;;;;;5.90;1.47;;;22.60;76.60;;;;;;5075246;28;21028;-69
2022/08/27 00:06:11;;;;;;;4.57;1.50;;;22.60;75.80;;;;;;5075039;28;20490;-70
2022/08/27 00:08:38;;;;;;;7.63;2.63;;;22.50;75.90;;;;;;5074802;28;20828;-70
2022/08/27 00:11:05;;;;;;;4.93;1.67;;;22.50;76.00;;;;;;5075217;28;20455;-69
2022/08/27 00:13:32;;;;;;;3.70;1.70;;;22.50;75.80;;;;;;5074850;28;21008;-69
2022/08/27 00:15:59;;;;;;;5.87;1.80;;;22.50;75.80;;;;;;5075140;28;20535;-69
2022/08/27 00:18:27;;;;;;;3.97;1.30;;;22.50;75.70;;;;;;5074971;28;20449;-70
2022/08/27 00:20:54;;;;;;;5.50;1.60;;;22.50;75.90;;;;;;5074907;28;20455;-69
2022/08/27 00:23:21;;;;;;;4.63;1.60;;;22.50;75.80;;;;;;5065448;28;20500;-69
2022/08/27 00:25:48;;;;;;;4.80;1.50;;;22.40;76.00;;;;;;5055008;28;20449;-69
2022/08/27 00:28:15;;;;;;;2.77;1.37;;;22.30;76.20;;;;;;5055110;28;20453;-69
2022/08/27 00:30:41;;;;;;;6.77;2.57;;;22.30;76.30;;;;;;5054508;28;20481;-69
2022/08/27 00:33:08;;;;;;;6.10;1.70;;;22.30;76.40;;;;;;5054510;28;20477;-70
2022/08/27 00:35:37;;;;;;;4.20;1.37;;;22.30;76.70;;;;;;5054740;28;20450;-69
2022/08/27 00:38:04;;;;;;;4.90;1.90;;;22.20;76.60;;;;;;5054544;28;20450;-69
2022/08/27 00:40:32;;;;;;;2.87;1.60;;;22.20;76.70;;;;;;5054669;28;20460;-69
2022/08/27 00:43:01;;;;;;;3.23;1.20;;;22.30;76.90;;;;;;5054153;28;20486;-70
2022/08/27 00:45:27;;;;;;;4.33;1.57;;;22.20;76.90;;;;;;5054520;28;20457;-70
2022/08/27 00:47:57;;;;;;;3.93;1.57;;;22.30;76.80;;;;;;5054592;28;20449;-70
2022/08/27 00:50:31;;;;;;;4.87;2.00;;;22.20;76.70;;;;;;5053860;28;20481;-70
2022/08/27 00:53:08;;;;;;;6.00;1.63;;;22.10;76.90;;;;;;5054308;28;20474;-70
2022/08/27 00:55:40;;;;;;;4.83;2.03;;;22.10;77.20;;;;;;5054482;28;20438;-70
2022/08/27 00:58:13;;;;;;;4.00;1.57;;;22.10;77.20;;;;;;5054300;28;20444;-70
2022/08/27 01:00:40;;;;;;;8.00;2.57;;;22.10;77.30;;;;;;5054444;28;20433;-69
2022/08/27 01:03:07;;;;;;;8.13;2.10;;;22.10;77.40;;;;;;5054110;28;20488;-69
2022/08/27 01:05:36;;;;;;;6.47;1.90;;;22.10;77.40;;;;;;5053815;28;20949;-70
2022/08/27 01:08:09;;;;;;;4.10;1.77;;;22.10;77.40;;;;;;5054017;28;20527;-70
2022/08/27 01:10:37;;;;;;;5.20;1.87;;;22.10;77.30;;;;;;5053925;28;20480;-70
2022/08/27 01:13:06;;;;;;;4.57;1.70;;;22.10;77.20;;;;;;5054223;28;20466;-70
2022/08/27 01:15:33;;;;;;;4.13;1.77;;;22.10;77.30;;;;;;5053572;28;20456;-70
2022/08/27 01:18:03;;;;;;;6.80;2.00;;;22.10;77.40;;;;;;5053998;28;20456;-70
2022/08/27 01:20:48;;;;;;;3.23;1.40;;;22.10;77.40;;;;;;5054119;28;20426;-70
2022/08/27 01:23:22;;;;;;;4.40;1.90;;;22.10;77.80;;;;;;5053773;28;20830;-70
2022/08/27 01:25:50;;;;;;;4.80;2.53;;;22.00;77.90;;;;;;5053370;28;20926;-70
2022/08/27 01:28:18;;;;;;;4.97;1.40;;;22.00;78.20;;;;;;5053800;28;20454;-70
2022/08/27 01:30:45;;;;;;;5.90;2.10;;;22.00;78.30;;;;;;5053743;28;20481;-70
2022/08/27 01:33:14;;;;;;;3.50;1.40;;;22.00;78.10;;;;;;5053613;28;20478;-70
2022/08/27 01:35:41;;;;;;;5.97;1.50;;;22.00;77.90;;;;;;5053834;28;20475;-69
2022/08/27 01:38:09;;;;;;;7.70;1.63;;;22.00;77.90;;;;;;5053509;28;20831;-70
2022/08/27 01:40:35;;;;;;;2.40;1.70;;;22.00;77.90;;;;;;5053136;28;20821;-70
2022/08/27 01:43:04;;;;;;;3.17;1.30;;;22.00;77.90;;;;;;5053428;28;20474;-70
2022/08/27 01:45:33;;;;;;;4.50;1.90;;;22.00;77.90;;;;;;5053538;28;20549;-70
2022/08/27 01:48:01;;;;;;;5.33;1.80;;;22.00;77.90;;;;;;5053334;28;20452;-70
2022/08/27 01:50:30;;;;;;;3.73;1.67;;;22.00;77.90;;;;;;5053028;28;21005;-69
2022/08/27 01:53:01;;;;;;;5.07;1.20;;;22.00;77.60;;;;;;5035337;28;20502;-70
2022/08/27 01:55:28;;;;;;;3.40;1.70;;;22.00;77.50;;;;;;5053488;28;20484;-70
2022/08/27 01:57:56;;;;;;;5.87;1.60;;;22.00;77.40;;;;;;5053197;28;20454;-69
2022/08/27 02:00:27;;;;;;;10.20;2.00;;;22.00;77.40;;;;;;5053173;28;20442;-69
2022/08/27 02:02:54;;;;;;;5.87;1.63;;;21.90;77.10;;;;;;5055863;28;20470;-70
2022/08/27 02:05:21;;;;;;;3.20;1.50;;;21.90;77.00;;;;;;5057189;28;20973;-70
2022/08/27 02:07:49;;;;;;;3.40;1.20;;;21.90;76.90;;;;;;5057743;28;20445;-70
2022/08/27 02:10:21;;;;;;;5.73;1.67;;;21.80;76.60;;;;;;5057277;28;20481;-70
2022/08/27 02:12:48;;;;;;;3.13;1.73;;;21.80;76.70;;;;;;5057461;28;20549;-69
2022/08/27 02:15:15;;;;;;;3.90;1.43;;;21.80;76.50;;;;;;5057222;28;20471;-69
2022/08/27 02:17:43;;;;;;;3.43;1.43;;;21.70;76.30;;;;;;5057186;28;20456;-69
2022/08/27 02:20:12;;;;;;;5.20;1.53;;;21.70;76.40;;;;;;5057176;28;20493;-70
2022/08/27 02:22:40;;;;;;;4.33;1.67;;;21.70;76.40;;;;;;5057121;28;20824;-70
2022/08/27 02:25:08;;;;;;;7.93;2.00;;;21.60;76.50;;;;;;5056851;28;20453;-69
2022/08/27 02:27:35;;;;;;;4.37;1.80;;;21.60;76.80;;;;;;5057109;28;20445;-69
2022/08/27 02:30:02;;;;;;;4.90;1.67;;;21.60;76.80;;;;;;5056808;28;21098;-70
2022/08/27 02:32:29;;;;;;;4.67;1.60;;;21.60;76.60;;;;;;5056955;28;20509;-70
2022/08/27 02:34:57;;;;;;;3.00;1.30;;;21.60;76.50;;;;;;5056957;28;20454;-70
2022/08/27 02:37:24;;;;;;;4.30;1.67;;;21.60;76.50;;;;;;5057131;28;20450;-70
2022/08/27 02:39:51;;;;;;;4.17;1.53;;;21.60;76.50;;;;;;5056732;28;20952;-70
2022/08/27 02:42:18;;;;;;;4.73;1.93;;;21.60;76.00;;;;;;5056871;28;20473;-69
2022/08/27 02:44:44;;;;;;;5.90;2.17;;;21.60;76.10;;;;;;5056786;28;20450;-69
2022/08/27 02:47:12;;;;;;;4.90;1.63;;;21.60;76.00;;;;;;5056842;28;20441;-70
2022/08/27 02:49:39;;;;;;;2.23;1.60;;;21.60;76.00;;;;;;5056517;28;20454;-70
2022/08/27 02:52:07;;;;;;;6.10;1.97;;;21.50;75.80;;;;;;5056610;28;20468;-70
2022/08/27 02:54:34;;;;;;;4.43;1.50;;;21.50;75.80;;;;;;5056263;28;20971;-70
2022/08/27 02:57:01;;;;;;;6.00;2.20;;;21.50;75.60;;;;;;5056659;28;20445;-69
2022/08/27 02:59:28;;;;;;;7.30;2.20;;;21.50;75.30;;;;;;5056839;28;20512;-70
2022/08/27 03:01:54;;;;;;;3.60;2.07;;;21.40;75.50;;;;;;5056485;28;20449;-70
2022/08/27 03:04:22;;;;;;;8.53;2.00;;;21.30;76.00;;;;;;5056225;28;20441;-69
2022/08/27 03:06:49;;;;;;;4.60;1.93;;;21.30;76.30;;;;;;5056599;28;20480;-69
2022/08/27 03:09:18;;;;;;;3.63;1.67;;;21.20;76.30;;;;;;5056355;28;20438;-70
2022/08/27 03:11:44;;;;;;;2.50;1.67;;;21.20;76.50;;;;;;5056328;28;20477;-69
2022/08/27 03:14:11;;;;;;;4.50;1.70;;;21.20;76.60;;;;;;5056084;28;20449;-70
2022/08/27 03:16:39;;;;;;;5.73;1.30;;;21.20;76.40;;;;;;5056397;28;20503;-69
2022/08/27 03:19:06;;;;;;;12.23;2.70;;;21.20;76.50;;;;;;5056201;28;20533;-70
2022/08/27 03:21:34;;;;;;;8.37;2.37;;;21.20;76.50;;;;;;5056193;28;20487;-70
2022/08/27 03:24:02;;;;;;;5.50;2.00;;;21.20;76.50;;;;;;5070868;28;20499;-70
2022/08/27 03:26:31;;;;;;;5.77;1.97;;;21.10;76.50;;;;;;5076200;28;20445;-69
2022/08/27 03:28:58;;;;;;;4.13;1.47;;;21.10;76.70;;;;;;5075890;28;20882;-69
2022/08/27 03:31:28;;;;;;;3.57;1.73;;;21.10;76.80;;;;;;5075966;28;20487;-69
2022/08/27 03:33:56;;;;;;;3.83;1.60;;;21.00;77.20;;;;;;5076123;28;20569;-70
2022/08/27 03:36:23;;;;;;;7.27;1.63;;;21.00;77.20;;;;;;5075640;28;20968;-70
2022/08/27 03:38:50;;;;;;;3.10;1.23;;;21.00;77.20;;;;;;5075788;28;20441;-70
2022/08/27 03:41:17;;;;;;;5.80;1.77;;;21.00;77.30;;;;;;5075689;28;20444;-70
2022/08/27 03:43:46;;;;;;;6.97;1.83;;;21.00;77.50;;;;;;5075769;28;20523;-70
2022/08/27 03:46:13;;;;;;;6.40;2.07;;;21.00;77.40;;;;;;5075918;28;20455;-70
2022/08/27 03:48:40;;;;;;;3.17;1.70;;;21.00;77.60;;;;;;5075699;28;20445;-70
2022/08/27 03:51:09;;;;;;;6.07;1.50;;;21.00;77.70;;;;;;5075480;28;20487;-70
2022/08/27 03:53:37;;;;;;;5.43;1.93;;;21.00;77.70;;;;;;5075348;28;20480;-70
2022/08/27 03:56:05;;;;;;;3.93;1.77;;;21.00;77.50;;;;;;5075187;28;20946;-69
2022/08/27 03:58:32;;;;;;;5.60;2.37;;;21.00;77.50;;;;;;5075377;28;20489;-69
2022/08/27 04:01:01;;;;;;;6.60;1.90;;;21.00;77.50;;;;;;5075266;28;20453;-70
2022/08/27 04:03:28;;;;;;;5.30;1.80;;;21.10;77.50;;;;;;5075308;28;20465;-70
2022/08/27 04:05:55;;;;;;;7.73;1.70;;;21.10;77.40;;;;;;5075286;28;20467;-70
2022/08/27 04:08:22;;;;;;;2.40;1.60;;;21.10;78.00;;;;;;5075201;28;20453;-70
2022/08/27 04:10:51;;;;;;;4.33;1.70;;;21.10;77.10;;;;;;5074656;28;20488;-70
2022/08/27 04:13:18;;;;;;;5.90;1.80;;;21.10;77.20;;;;;;5075259;28;20479;-70
2022/08/27 04:15:46;;;;;;;5.77;2.20;;;21.10;77.00;;;;;;5075038;28;20432;-70
2022/08/27 04:18:16;;;;;;;3.83;1.90;;;21.10;77.20;;;;;;5075013;28;20823;-69
2022/08/27 04:20:43;;;;;;;3.70;1.60;;;21.10;77.10;;;;;;5074810;28;20449;-70
2022/08/27 04:23:09;;;;;;;5.60;2.00;;;21.10;76.90;;;;;;5074719;28;20484;-70
2022/08/27 04:25:39;;;;;;;6.83;1.93;;;21.20;77.10;;;;;;5074188;28;20444;-69
2022/08/27 04:28:06;;;;;;;4.57;1.87;;;21.20;77.20;;;;;;5074601;28;20464;-70
2022/08/27 04:30:33;;;;;;;6.67;2.17;;;21.20;77.20;;;;;;5074690;28;20488;-70
2022/08/27 04:33:00;;;;;;;6.30;1.43;;;21.20;77.40;;;;;;5074601;28;20469;-70
2022/08/27 04:35:28;;;;;;;6.57;2.20;;;21.20;77.70;;;;;;5074918;28;20453;-70
2022/08/27 04:37:56;;;;;;;5.50;1.83;;;21.20;77.90;;;;;;5074586;28;20452;-69
2022/08/27 04:41:18;;;;;;;2.07;1.87;;;21.20;77.80;;;;;;5074480;28;20451;-70
2022/08/27 04:43:10;;;;;;;3.67;1.60;;;21.20;77.80;;;;;;5073709;28;20911;-69
2022/08/27 04:45:43;;;;;;;3.83;2.10;;;21.20;77.80;;;;;;5074480;28;20548;-69
2022/08/27 04:48:10;;;;;;;4.10;1.67;;;21.20;77.90;;;;;;5074073;28;20438;-69
2022/08/27 04:50:41;;;;;;;4.00;1.97;;;21.20;77.90;;;;;;5074214;28;20846;-70
2022/08/27 04:53:08;;;;;;;5.00;2.30;;;21.20;77.90;;;;;;5073794;28;20981;-70
2022/08/27 04:55:41;;;;;;;4.80;1.57;;;21.20;77.40;;;;;;5074300;28;20441;-69
2022/08/27 04:58:08;;;;;;;4.80;1.80;;;21.20;77.50;;;;;;5074338;28;20429;-69
2022/08/27 05:00:40;;;;;;;7.20;1.80;;;21.20;77.40;;;;;;5073947;28;20992;-69
2022/08/27 05:03:06;;;;;;;5.07;2.00;;;21.20;77.50;;;;;;5074035;28;20468;-70
2022/08/27 05:05:33;;;;;;;5.00;1.63;;;21.20;77.30;;;;;;5074431;28;20457;-69
2022/08/27 05:08:02;;;;;;;7.80;2.70;;;21.20;77.20;;;;;;5074575;28;20459;-69
2022/08/27 05:10:29;;;;;;;4.70;2.13;;;21.20;77.20;;;;;;5074079;28;20445;-70
2022/08/27 05:12:56;;;;;;;5.33;2.23;;;21.20;77.10;;;;;;5074046;28;20503;-70
2022/08/27 05:15:23;;;;;;;4.37;2.20;;;21.20;77.00;;;;;;5074074;28;20492;-69
2022/08/27 05:17:50;;;;;;;4.63;2.10;;;21.10;76.70;;;;;;5073876;28;20571;-70
2022/08/27 05:20:18;;;;;;;3.37;1.87;;;21.10;76.70;;;;;;5073957;28;20539;-69
2022/08/27 05:22:45;;;;;;;3.87;2.00;;;21.10;76.70;;;;;;5073991;28;20465;-70
2022/08/27 05:25:13;;;;;;;5.30;2.20;;;21.10;76.70;;;;;;5073985;28;20447;-70
2022/08/27 05:27:40;;;;;;;5.00;2.30;;;21.10;76.70;;;;;;5073530;28;20977;-69
2022/08/27 05:30:08;;;;;;;5.03;1.73;;;21.10;76.50;;;;;;5073690;28;20456;-69
2022/08/27 05:32:35;;;;;;;4.50;1.90;;;21.10;76.70;;;;;;5075422;28;20500;-69
2022/08/27 05:35:01;;;;;;;4.90;1.80;;;21.10;76.90;;;;;;5074793;28;20846;-70
2022/08/27 05:37:29;;;;;;;8.27;2.30;;;21.10;77.30;;;;;;5074101;28;20448;-70
2022/08/27 05:39:55;;;;;;;3.60;1.70;;;21.10;77.80;;;;;;5073435;28;20492;-70
2022/08/27 05:42:25;;;;;;;4.27;2.17;;;21.10;78.30;;;;;;5073380;28;20472;-69
2022/08/27 05:44:52;;;;;;;2.40;1.80;;;21.10;78.70;;;;;;5073608;28;20933;-70
2022/08/27 05:47:18;;;;;;;4.40;2.37;;;21.10;78.60;;;;;;5074118;28;20449;-69
2022/08/27 05:49:45;;;;;;;6.10;2.33;;;21.10;78.40;;;;;;5073725;28;20440;-69
2022/08/27 05:52:12;;;;;;;8.13;2.27;;;21.10;79.20;;;;;;5073784;28;20484;-70
2022/08/27 05:54:40;;;;;;;3.47;2.30;;;21.10;78.10;;;;;;5073989;28;20435;-69
2022/08/27 05:57:07;;;;;;;3.23;2.20;;;21.20;79.00;;;;;;5073701;28;20451;-69
2022/08/27 06:02:20;;;;;;;6.10;2.50;;;21.10;78.20;;;;;;5073609;28;20440;-70
2022/08/27 06:04:47;;;;;;;5.80;2.47;;;21.10;78.20;;;;;;5073784;28;20510;-70
2022/08/27 06:07:14;;;;;;;3.73;2.47;;;21.10;78.30;;;;;;5074820;28;20446;-69
2022/08/27 06:09:41;;;;;;;5.60;2.20;;;21.10;78.50;;;;;;5073623;28;20457;-70
2022/08/27 06:12:09;;;;;;;8.87;2.30;;;21.10;78.70;;;;;;5073653;28;20480;-70
2022/08/27 06:14:37;;;;;;;5.57;1.70;;;21.10;78.60;;;;;;5073355;28;20836;-70
2022/08/27 06:17:05;;;;;;;6.83;2.03;;;21.10;78.30;;;;;;5073784;28;20445;-69
2022/08/27 06:19:33;;;;;;;5.50;1.63;;;21.10;78.20;;;;;;5073365;28;20449;-68
2022/08/27 06:22:01;;;;;;;5.73;2.50;;;21.10;78.20;;;;;;5073828;28;20515;-68
2022/08/27 06:24:28;;;;;;;6.20;1.90;;;21.10;78.50;;;;;;5072996;28;20483;-68
2022/08/27 06:26:56;;;;;;;2.20;1.70;;;21.10;78.80;;;;;;5073318;28;20441;-68
2022/08/27 06:29:23;;;;;;;5.37;2.57;;;21.10;78.80;;;;;;5073188;28;20510;-68
2022/08/27 06:31:55;;;;;;;2.67;1.60;;;21.10;78.80;;;;;;5072877;28;20476;-68
2022/08/27 06:34:22;;;;;;;6.83;2.50;;;21.10;78.90;;;;;;5073380;28;20455;-68
2022/08/27 06:36:49;;;;;;;2.80;1.63;;;21.20;79.00;;;;;;5073131;28;20444;-69
2022/08/27 06:39:16;;;;;;;5.27;1.90;;;21.10;79.20;;;;;;5072996;28;20968;-69
2022/08/27 06:41:43;;;;;;;5.77;2.10;;;21.20;79.40;;;;;;5072749;28;20460;-69
2022/08/27 06:44:11;;;;;;;3.97;1.83;;;21.20;80.30;;;;;;5073180;28;20830;-69
2022/08/27 06:46:38;;;;;;;4.70;1.60;;;21.20;79.50;;;;;;5073114;28;20445;-69
2022/08/27 06:49:07;;;;;;;4.97;2.13;;;21.20;80.20;;;;;;5075611;28;20448;-70
2022/08/27 06:51:36;;;;;;;5.27;2.07;;;21.20;79.50;;;;;;5078686;28;20867;-69
2022/08/27 06:54:08;;;;;;;3.57;1.90;;;21.20;79.30;;;;;;5078281;28;20471;-69
2022/08/27 06:56:36;;;;;;;4.17;2.23;;;21.30;79.60;;;;;;5077589;28;20429;-69
2022/08/27 06:59:06;;;;;;;4.50;2.03;;;21.30;79.80;;;;;;5076583;28;20820;-69
2022/08/27 07:01:36;;;;;;;4.43;2.00;;;21.30;79.80;;;;;;5076668;28;20471;-69
2022/08/27 07:04:06;;;;;;;6.20;2.10;;;21.30;79.30;;;;;;5076806;28;20464;-69
2022/08/27 07:06:34;;;;;;;7.57;2.30;;;21.30;79.40;;;;;;5076529;28;20432;-69
2022/08/27 07:09:01;;;;;;;5.57;2.00;;;21.30;80.10;;;;;;5077916;28;20448;-69
2022/08/27 07:11:30;;;;;;;7.37;2.37;;;21.30;79.20;;;;;;5078433;28;20472;-69
2022/08/27 07:13:57;;;;;;;5.20;2.10;;;21.30;79.00;;;;;;5076395;28;20460;-69
2022/08/27 07:16:25;;;;;;;3.27;1.73;;;21.30;79.00;;;;;;5076923;28;20471;-70
2022/08/27 07:18:53;;;;;;;4.13;1.80;;;21.30;78.50;;;;;;5075909;28;20445;-69
2022/08/27 07:21:23;;;;;;;5.23;2.13;;;21.40;77.90;;;;;;5075973;28;20948;-70
2022/08/27 07:23:51;;;;;;;4.97;1.70;;;21.40;77.80;;;;;;5075710;28;20481;-69
2022/08/27 07:26:20;;;;;;;5.03;2.17;;;21.40;77.00;;;;;;5076039;28;20453;-69
2022/08/27 07:28:47;;;;;;;4.63;1.97;;;21.50;76.80;;;;;;5075918;28;20966;-70
2022/08/27 07:31:17;;;;;;;6.93;2.40;;;21.50;76.50;;;;;;5075866;28;20476;-70
2022/08/27 07:33:44;;;;;;;7.23;2.33;;;21.60;76.00;;;;;;5075948;28;20461;-70
2022/08/27 07:36:11;;;;;;;3.80;2.10;;;21.50;75.10;;;;;;5075592;28;20461;-69
2022/08/27 07:38:40;;;;;;;3.63;2.00;;;21.60;74.40;;;;;;5076097;28;20449;-70
2022/08/27 07:41:08;;;;;;;5.90;2.17;;;21.50;74.00;;;;;;5075832;28;20595;-70
2022/08/27 07:46:20;;;;;;;5.77;2.30;;;21.60;74.00;;;;;;5076010;28;20416;-70
2022/08/27 07:48:47;;;;;;;5.40;1.87;;;21.60;74.10;;;;;;5075621;28;20460;-70
2022/08/27 07:51:16;;;;;;;6.60;2.47;;;21.60;73.50;;;;;;5075582;28;20448;-70
2022/08/27 07:53:44;;;;;;;3.23;2.50;;;21.50;72.80;;;;;;5075457;28;20508;-70
2022/08/27 07:56:12;;;;;;;5.17;2.47;;;21.60;72.60;;;;;;5075140;28;20799;-70
2022/08/27 07:58:39;;;;;;;3.83;2.23;;;21.60;72.60;;;;;;5075513;28;20499;-70
2022/08/27 08:01:06;;;;;;;4.20;1.93;;;21.70;72.60;;;;;;5074234;28;20437;-70
2022/08/27 08:03:33;;;;;;;3.80;2.37;;;21.60;72.00;;;;;;5075295;28;20467;-69
2022/08/27 08:06:04;;;;;;;5.90;1.90;;;21.70;72.00;;;;;;5075489;28;20451;-69
2022/08/27 08:08:32;;;;;;;5.67;2.23;;;21.70;71.70;;;;;;5075548;28;20465;-70
2022/08/27 08:11:02;;;;;;;3.40;2.13;;;21.70;71.60;;;;;;5075335;28;20445;-70
2022/08/27 08:13:30;;;;;;;4.90;2.10;;;21.70;71.40;;;;;;5075066;28;20568;-70
2022/08/27 08:15:58;;;;;;;6.90;2.07;;;21.80;71.50;;;;;;5075325;28;20451;-69
2022/08/27 08:18:25;;;;;;;3.83;1.90;;;21.80;71.20;;;;;;5074859;28;20456;-70
2022/08/27 08:20:52;;;;;;;5.77;2.60;;;21.80;70.50;;;;;;5075441;28;20449;-70
2022/08/27 08:23:19;;;;;;;4.87;2.37;;;21.90;70.60;;;;;;5075103;28;20480;-70
2022/08/27 08:25:46;;;;;;;4.83;2.70;;;21.90;70.40;;;;;;5075097;28;20555;-70
2022/08/27 08:28:14;;;;;;;5.50;3.13;;;21.90;70.50;;;;;;5074831;28;20457;-70
2022/08/27 08:30:43;;;;;;;6.87;2.80;;;22.00;70.30;;;;;;5074981;28;20529;-70
2022/08/27 08:33:12;;;;;;;6.00;3.40;;;22.10;70.40;;;;;;5074668;28;21054;-70
2022/08/27 08:35:40;;;;;;;4.13;2.50;;;22.10;70.00;;;;;;5074980;28;20527;-71
2022/08/27 08:38:07;;;;;;;4.77;2.60;;;22.20;70.00;;;;;;5074854;28;20463;-70
2022/08/27 08:40:36;;;;;;;6.20;2.53;;;22.20;69.40;;;;;;5074686;28;20437;-69
2022/08/27 08:43:06;;;;;;;5.93;2.67;;;22.20;69.30;;;;;;5075124;28;20453;-69
2022/08/27 08:45:38;;;;;;;9.93;2.97;;;22.20;69.70;;;;;;5075282;28;20953;-69
2022/08/27 08:48:10;;;;;;;8.10;3.40;;;22.10;68.70;;;;;;5074471;28;20440;-69
2022/08/27 08:50:47;;;;;;;5.63;3.90;;;22.10;69.30;;;;;;5074171;28;20437;-69
2022/08/27 08:53:19;;;;;;;4.57;2.53;;;22.10;69.60;;;;;;5074235;28;20488;-69
2022/08/27 08:55:50;;;;;;;4.60;2.47;;;22.20;70.10;;;;;;5074220;28;20443;-69
2022/08/27 08:58:26;;;;;;;8.80;3.57;;;22.10;69.70;;;;;;5074388;28;20448;-68
2022/08/27 09:00:57;;;;;;;5.33;3.37;;;22.20;69.10;;;;;;5074282;28;20452;-69
2022/08/27 09:03:24;;;;;;;7.97;2.87;;;22.10;69.00;;;;;;5074123;28;20475;-69
2022/08/27 09:05:55;;;;;;;7.90;3.60;;;22.20;69.10;;;;;;5073962;28;20535;-68
2022/08/27 09:08:27;;;;;;;4.63;3.20;;;22.20;69.30;;;;;;5073862;28;20975;-68
2022/08/27 09:11:02;;;;;;;3.27;2.30;;;22.20;68.70;;;;;;5073668;28;20441;-69
2022/08/27 09:13:34;;;;;;;3.40;2.50;;;22.20;68.40;;;;;;5073623;28;20491;-69
2022/08/27 09:16:04;;;;;;;6.03;4.33;;;22.20;68.40;;;;;;5073914;28;20433;-69
2022/08/27 09:18:33;;;;;;;5.30;3.23;;;22.30;69.00;;;;;;5074180;28;20821;-68
2022/08/27 09:21:08;;;;;;;5.50;2.60;;;22.30;68.20;;;;;;5073926;28;20539;-69
2022/08/27 09:23:42;;;;;;;6.10;3.53;;;22.40;68.60;;;;;;5062871;28;20832;-69
2022/08/27 09:26:19;;;;;;;7.20;3.07;;;22.50;68.30;;;;;;5053580;28;20437;-69
2022/08/27 09:31:39;;;;;;;5.00;3.27;;;22.70;67.10;;;;;;5053937;28;20430;-69
2022/08/27 09:34:06;;;;;;;4.50;2.70;;;22.80;66.70;;;;;;5053764;28;20461;-68
2022/08/27 09:36:33;;;;;;;6.10;3.00;;;22.80;65.30;;;;;;5053822;28;20461;-68
2022/08/27 09:39:05;;;;;;;6.13;2.63;;;22.80;65.20;;;;;;5053422;28;20446;-68
2022/08/27 09:41:39;;;;;;;5.73;2.80;;;22.90;65.40;;;;;;5053338;28;20911;-69
2022/08/27 09:44:10;;;;;;;5.23;3.17;;;23.00;65.40;;;;;;5053849;28;20434;-69
2022/08/27 09:46:38;;;;;;;4.33;2.87;;;23.10;64.40;;;;;;5053548;28;20442;-69
2022/08/27 09:49:15;;;;;;;5.53;3.40;;;23.10;64.50;;;;;;5053111;28;20934;-69
2022/08/27 09:51:44;;;;;;;7.63;2.73;;;23.20;63.90;;;;;;5053375;28;20438;-68
2022/08/27 09:54:21;;;;;;;6.83;2.80;;;23.20;63.70;;;;;;5053530;28;20473;-67
2022/08/27 09:56:49;;;;;;;4.10;2.10;;;23.20;63.90;;;;;;5053421;28;20438;-67
2022/08/27 09:59:22;;;;;;;5.70;2.40;;;23.20;63.30;;;;;;5053022;28;20910;-67
2022/08/27 10:01:52;;;;;;;7.70;2.40;;;23.30;63.60;;;;;;5053339;28;20496;-68
2022/08/27 10:04:27;;;;;;;6.90;2.67;;;23.30;63.10;;;;;;5053321;28;20433;-69
2022/08/27 10:06:54;;;;;;;5.73;2.70;;;23.30;63.00;;;;;;5053185;28;20902;-69
2022/08/27 10:09:26;;;;;;;6.33;2.47;;;23.30;63.20;;;;;;5053507;28;20456;-70
2022/08/27 10:11:59;;;;;;;6.07;2.83;;;23.40;63.50;;;;;;5053188;28;20471;-69
2022/08/27 10:14:31;;;;;;;4.20;2.53;;;23.50;63.50;;;;;;5053284;28;20434;-69
2022/08/27 10:17:10;;;;;;;4.63;2.50;;;23.60;62.90;;;;;;5052941;28;20434;-67
2022/08/27 10:19:52;;;;;;;7.90;3.17;;;23.60;62.00;;;;;;5053109;28;20438;-67
2022/08/27 10:22:32;;;;;;;3.70;2.97;;;23.70;61.90;;;;;;5053019;28;20461;-69
2022/08/27 10:25:08;;;;;;;5.00;3.63;;;23.70;61.80;;;;;;5057036;28;20465;-69
2022/08/27 10:27:43;;;;;;;4.33;3.47;;;23.80;62.00;;;;;;5057035;28;20426;-69
2022/08/27 10:30:13;;;;;;;5.13;4.13;;;23.90;61.70;;;;;;5057203;28;20436;-69
2022/08/27 10:32:54;;;;;;;5.33;2.97;;;24.00;61.00;;;;;;5056715;28;20489;-70
2022/08/27 10:35:24;;;;;;;6.90;3.13;;;24.10;59.90;;;;;;5057242;28;20434;-70
2022/08/27 10:38:04;;;;;;;6.30;3.50;;;24.10;60.10;;;;;;5057095;28;20446;-70
2022/08/27 10:40:36;;;;;;;3.33;2.60;;;24.20;59.50;;;;;;5057053;28;20441;-71
2022/08/27 10:43:18;;;;;;;8.43;5.10;;;24.30;59.20;;;;;;5057149;28;20508;-70
2022/08/27 10:45:52;;;;;;;6.70;5.60;;;24.50;59.30;;;;;;5057011;28;20434;-70
2022/08/27 10:48:30;;;;;;;6.03;5.33;;;24.70;59.00;;;;;;5056581;28;20937;-70
2022/08/27 10:51:05;;;;;;;16.27;6.33;;;24.80;57.70;;;;;;5056761;28;20429;-71
2022/08/27 10:53:40;;;;;;;7.87;3.80;;;25.00;57.90;;;;;;5056810;28;20489;-69
2022/08/27 10:56:14;;;;;;;6.77;4.57;;;25.10;57.40;;;;;;5056555;28;20440;-69
2022/08/27 10:58:53;;;;;;;5.73;4.10;;;25.30;56.70;;;;;;5056542;28;20515;-69
2022/08/27 11:01:26;;;;;;;9.70;6.00;;;25.50;56.50;;;;;;5056681;28;20434;-68
2022/08/27 11:03:59;;;;;;;10.23;7.60;;;25.60;55.90;;;;;;5056987;28;20468;-68
2022/08/27 11:06:31;;;;;;;9.53;4.00;;;25.80;55.80;;;;;;5056565;28;20457;-68
2022/08/27 11:09:02;;;;;;;9.07;3.97;;;25.90;54.80;;;;;;5056455;28;20442;-69
2022/08/27 11:11:36;;;;;;;4.77;2.57;;;26.10;54.60;;;;;;5056456;28;20527;-69
2022/08/27 11:14:08;;;;;;;4.03;2.60;;;26.10;53.80;;;;;;5056306;28;20485;-68
2022/08/27 11:16:41;;;;;;;5.77;2.87;;;26.00;53.00;;;;;;5056119;28;20445;-68
2022/08/27 11:19:16;;;;;;;3.93;2.20;;;26.00;53.10;;;;;;5056323;28;20437;-69
2022/08/27 11:21:51;;;;;;;3.70;2.47;;;26.00;53.40;;;;;;5056311;28;20438;-68
2022/08/27 11:24:25;;;;;;;3.20;2.83;;;26.00;53.80;;;;;;5056060;28;20457;-68
2022/08/27 11:26:56;;;;;;;4.57;2.30;;;26.00;54.00;;;;;;5055595;28;20911;-69
2022/08/27 11:29:29;;;;;;;5.03;1.97;;;26.10;53.30;;;;;;5055929;28;20460;-69
2022/08/27 11:32:03;;;;;;;4.70;2.40;;;26.00;53.30;;;;;;5055889;28;20445;-68
2022/08/27 11:34:39;;;;;;;7.33;2.60;;;26.10;53.80;;;;;;5057046;28;20492;-69
2022/08/27 11:37:44;;;;;;;4.63;1.60;;;26.20;53.40;;;;;;5056017;28;20911;-69
2022/08/27 11:40:34;;;;;;;4.83;2.43;;;26.40;52.00;;;;;;5057106;28;20457;-69
2022/08/27 11:43:05;;;;;;;4.07;1.90;;;26.50;52.00;;;;;;5056636;28;20520;-69
2022/08/27 11:45:37;;;;;;;7.77;2.87;;;26.70;52.00;;;;;;5057210;28;20484;-69
2022/08/27 11:48:16;;;;;;;6.30;2.10;;;26.80;51.80;;;;;;5056494;28;20426;-69
2022/08/27 11:50:53;;;;;;;9.37;2.30;;;26.90;51.30;;;;;;5056253;28;20434;-69
2022/08/27 11:53:25;;;;;;;3.63;1.97;;;27.00;50.40;;;;;;5055774;28;20875;-70
2022/08/27 11:55:52;;;;;;;4.23;2.00;;;27.10;50.40;;;;;;5055854;28;20469;-69
2022/08/27 11:58:29;;;;;;;5.07;2.27;;;27.10;49.80;;;;;;5056236;28;20446;-69
2022/08/27 12:00:56;;;;;;;9.97;2.30;;;27.20;50.10;;;;;;5055849;28;20438;-69
2022/08/27 12:03:28;;;;;;;4.67;1.83;;;27.30;50.30;;;;;;5055633;28;20548;-69
2022/08/27 12:06:25;;;;;;;3.60;1.83;;;27.30;48.90;;;;;;5056161;28;20460;-69
2022/08/27 12:08:52;;;;;;;3.73;2.10;;;27.40;49.00;;;;;;5055762;28;20434;-69
2022/08/27 12:11:35;;;;;;;4.67;2.07;;;27.50;48.90;;;;;;5056448;28;20449;-69
2022/08/27 12:14:14;;;;;;;5.73;2.30;;;27.40;49.10;;;;;;5055659;28;20485;-69
2022/08/27 12:16:47;;;;;;;8.23;2.20;;;27.40;48.90;;;;;;5055783;28;20425;-69
2022/08/27 12:19:40;;;;;;;3.50;1.90;;;27.30;48.60;;;;;;5055522;28;20426;-69
2022/08/27 12:22:22;;;;;;;8.00;2.10;;;27.30;48.60;;;;;;5055271;28;20482;-69
2022/08/27 12:24:52;;;;;;;4.57;2.03;;;27.20;48.10;;;;;;5055757;28;20978;-69
2022/08/27 12:27:33;;;;;;;5.03;1.90;;;27.00;48.80;;;;;;5054897;28;20461;-69
2022/08/27 12:30:03;;;;;;;2.50;1.60;;;27.00;49.00;;;;;;5037798;28;20446;-69
2022/08/27 12:32:33;;;;;;;7.40;2.37;;;26.90;49.00;;;;;;5054929;28;20473;-69
2022/08/27 12:35:12;;;;;;;4.70;1.70;;;26.90;49.30;;;;;;5054561;28;20418;-69
2022/08/27 12:37:45;;;;;;;7.33;2.20;;;26.80;48.50;;;;;;5055606;28;20531;-69
2022/08/27 12:40:22;;;;;;;6.27;2.30;;;26.70;49.10;;;;;;5054395;28;20441;-69
2022/08/27 12:42:49;;;;;;;3.10;1.70;;;26.60;48.70;;;;;;5054123;28;20889;-69
2022/08/27 12:45:21;;;;;;;6.20;2.50;;;26.50;49.00;;;;;;5053985;28;20454;-69
2022/08/27 12:47:48;;;;;;;6.47;1.80;;;26.40;49.60;;;;;;5054435;28;20449;-69
2022/08/27 12:50:22;;;;;;;7.03;2.30;;;26.40;49.80;;;;;;5054367;28;20454;-70
2022/08/27 12:53:11;;;;;;;3.87;1.40;;;26.50;49.80;;;;;;5054859;28;20494;-70
2022/08/27 12:55:50;;;;;;;5.20;1.57;;;26.30;49.30;;;;;;5054580;28;20438;-70
2022/08/27 12:58:30;;;;;;;2.77;1.80;;;26.30;49.50;;;;;;5053923;28;20540;-70
2022/08/27 13:01:07;;;;;;;5.27;1.80;;;26.30;49.60;;;;;;5054541;28;20456;-70
2022/08/27 13:03:37;;;;;;;3.60;1.87;;;26.30;49.40;;;;;;5054445;28;20501;-70
2022/08/27 13:06:15;;;;;;;4.73;1.60;;;26.30;49.90;;;;;;5054691;28;20445;-69
2022/08/27 13:08:43;;;;;;;3.20;1.83;;;26.30;50.20;;;;;;5054157;28;20438;-69